Beaconsfield, Canada
Current Conditions -  °F | °C
As of 5:00 AM on Friday 31 Oct 2014 (Local Time) from CYUL Reporting Station
Overcast Overcast  
Wind Chill: 37°   Ceiling: 12000
Heat Index: 37°   Visibility: 15mi
Dew Point: 30°   Wind: 3mph
Humidity: 75%   Direction: 320°NW
Pressure: 30.04"   Gusts: NA
Location:  45.43°N, 73.83°W
Report Text: CYUL 310900Z 32003KT 15SM FEW040 OVC120 03/M01 A3004 RMK SC1AS8 SC TR SLP172
Loading
Personal Weather Stations






























Interactive Weather Map
Tropical Storm Tracking
New forecast layout! Learn more

10-Day Weather Forecast

Advertisements
Track Severe Weather on mobile